Oud-Heverlee, Belgium
Current Conditions -  °F | °C
As of 3:50 AM on Saturday 25 Oct 2014 (Local Time) from EBBR Reporting Station
Broken Clouds Broken Clouds  
Wind Chill: 12°   Ceiling: 800
Heat Index: 12°   Visibility: 6mi
Dew Point: 10°   Wind: 12mph
Humidity: 88%   Direction: 220°SW
Pressure: 30"   Gusts: NA
Location:  50.84°N, 4.66°E
Report Text: EBBR 250150Z 22010KT 9999 SCT006 BKN008 12/10 Q1016 NOSIG
Loading
Personal Weather Stations






























Interactive Weather Map
Tropical Storm Tracking
New forecast layout! Learn more

10-Day Weather Forecast

Advertisements
Track Severe Weather on mobile